sensor_id;sensor_type;location;lat;lon;timestamp;P1;durP1;ratioP1;P2;durP2;ratioP2
14137;SDS011;8199;51.310;9.466;2023-06-22T04:34:15;15.52;;;10.23;;
14137;SDS011;8199;51.310;9.466;2023-06-22T04:36:41;13.65;;;10.05;;
14137;SDS011;8199;51.310;9.466;2023-06-22T04:39:07;28.60;;;11.70;;
14137;SDS011;8199;51.310;9.466;2023-06-22T04:41:35;14.73;;;9.77;;
14137;SDS011;8199;51.310;9.466;2023-06-22T04:44:07;20.27;;;10.40;;
14137;SDS011;8199;51.310;9.466;2023-06-22T04:46:48;22.50;;;10.30;;
14137;SDS011;8199;51.310;9.466;2023-06-22T04:49:25;20.90;;;10.30;;
14137;SDS011;8199;51.310;9.466;2023-06-22T04:51:57;19.67;;;10.50;;
14137;SDS011;8199;51.310;9.466;2023-06-22T04:54:26;14.55;;;9.35;;
14137;SDS011;8199;51.310;9.466;2023-06-22T04:56:52;15.35;;;10.20;;
14137;SDS011;8199;51.310;9.466;2023-06-22T04:59:23;18.30;;;9.25;;
14137;SDS011;8199;51.310;9.466;2023-06-22T05:01:56;12.52;;;9.45;;
14137;SDS011;8199;51.310;9.466;2023-06-22T05:04:23;13.00;;;9.65;;
14137;SDS011;8199;51.310;9.466;2023-06-22T05:06:49;15.77;;;10.02;;
14137;SDS011;8199;51.310;9.466;2023-06-22T05:09:16;12.60;;;10.05;;
14137;SDS011;8199;51.310;9.466;2023-06-22T05:11:42;14.02;;;9.27;;
14137;SDS011;8199;51.310;9.466;2023-06-22T05:14:08;18.48;;;10.25;;
14137;SDS011;8199;51.310;9.466;2023-06-22T05:16:34;10.00;;;9.07;;
14137;SDS011;8199;51.310;9.466;2023-06-22T05:18:59;11.68;;;8.93;;
14137;SDS011;8199;51.310;9.466;2023-06-22T05:21:28;12.55;;;9.35;;
14137;SDS011;8199;51.310;9.466;2023-06-22T05:23:53;17.42;;;10.63;;
14137;SDS011;8199;51.310;9.466;2023-06-22T05:26:20;14.40;;;10.48;;
14137;SDS011;8199;51.310;9.466;2023-06-22T05:28:46;12.25;;;9.95;;
14137;SDS011;8199;51.310;9.466;2023-06-22T05:31:16;15.07;;;10.43;;
14137;SDS011;8199;51.310;9.466;2023-06-22T05:33:43;12.32;;;9.00;;
14137;SDS011;8199;51.310;9.466;2023-06-22T05:36:09;16.38;;;10.82;;
14137;SDS011;8199;51.310;9.466;2023-06-22T05:38:35;14.15;;;9.85;;
14137;SDS011;8199;51.310;9.466;2023-06-22T05:41:01;9.63;;;8.50;;
14137;SDS011;8199;51.310;9.466;2023-06-22T05:43:27;14.75;;;8.95;;
14137;SDS011;8199;51.310;9.466;2023-06-22T05:45:53;16.90;;;9.15;;
14137;SDS011;8199;51.310;9.466;2023-06-22T05:48:18;14.48;;;10.35;;
14137;SDS011;8199;51.310;9.466;2023-06-22T05:50:44;14.43;;;11.10;;
14137;SDS011;8199;51.310;9.466;2023-06-22T05:53:09;16.55;;;10.73;;
14137;SDS011;8199;51.310;9.466;2023-06-22T05:55:35;14.93;;;10.43;;
14137;SDS011;8199;51.310;9.466;2023-06-22T05:58:00;12.23;;;9.90;;
14137;SDS011;8199;51.310;9.466;2023-06-22T06:00:26;13.35;;;9.52;;
14137;SDS011;8199;51.310;9.466;2023-06-22T06:02:52;14.57;;;9.65;;
14137;SDS011;8199;51.310;9.466;2023-06-22T06:05:17;14.57;;;9.57;;
14137;SDS011;8199;51.310;9.466;2023-06-22T06:07:44;12.40;;;10.32;;
14137;SDS011;8199;51.310;9.466;2023-06-22T06:10:10;11.70;;;9.40;;
14137;SDS011;8199;51.310;9.466;2023-06-22T06:12:36;10.48;;;9.45;;
14137;SDS011;8199;51.310;9.466;2023-06-22T06:15:02;11.40;;;8.85;;
14137;SDS011;8199;51.310;9.466;2023-06-22T06:17:28;10.63;;;9.50;;
14137;SDS011;8199;51.310;9.466;2023-06-22T06:19:54;10.98;;;8.52;;
14137;SDS011;8199;51.310;9.466;2023-06-22T06:22:20;12.40;;;9.20;;
14137;SDS011;8199;51.310;9.466;2023-06-22T06:24:46;9.85;;;8.88;;
14137;SDS011;8199;51.310;9.466;2023-06-22T06:27:12;10.98;;;8.57;;
14137;SDS011;8199;51.310;9.466;2023-06-22T06:29:41;10.88;;;8.63;;
14137;SDS011;8199;51.310;9.466;2023-06-22T06:32:06;12.02;;;9.00;;
14137;SDS011;8199;51.310;9.466;2023-06-22T06:34:32;9.15;;;8.35;;
14137;SDS011;8199;51.310;9.466;2023-06-22T06:36:58;9.98;;;8.95;;
14137;SDS011;8199;51.310;9.466;2023-06-22T06:39:24;8.85;;;7.95;;
14137;SDS011;8199;51.310;9.466;2023-06-22T06:41:50;10.48;;;8.48;;
14137;SDS011;8199;51.310;9.466;2023-06-22T06:44:16;9.80;;;8.05;;
14137;SDS011;8199;51.310;9.466;2023-06-22T06:46:42;9.05;;;8.25;;
14137;SDS011;8199;51.310;9.466;2023-06-22T06:49:07;8.70;;;7.88;;
14137;SDS011;8199;51.310;9.466;2023-06-22T06:51:33;8.80;;;7.90;;
14137;SDS011;8199;51.310;9.466;2023-06-22T06:53:58;8.70;;;7.88;;
14137;SDS011;8199;51.310;9.466;2023-06-22T06:56:24;11.82;;;8.00;;
14137;SDS011;8199;51.310;9.466;2023-06-22T06:58:50;9.23;;;7.93;;
14137;SDS011;8199;51.310;9.466;2023-06-22T07:01:16;8.73;;;7.80;;
14137;SDS011;8199;51.310;9.466;2023-06-22T07:03:42;13.05;;;11.75;;
14137;SDS011;8199;51.310;9.466;2023-06-22T07:06:08;13.20;;;11.85;;
14137;SDS011;8199;51.310;9.466;2023-06-22T07:08:34;13.57;;;9.38;;
14137;SDS011;8199;51.310;9.466;2023-06-22T07:11:01;12.20;;;10.15;;
14137;SDS011;8199;51.310;9.466;2023-06-22T07:13:27;14.07;;;11.45;;
14137;SDS011;8199;51.310;9.466;2023-06-22T07:15:53;13.32;;;12.02;;
14137;SDS011;8199;51.310;9.466;2023-06-22T07:18:18;12.85;;;11.60;;
14137;SDS011;8199;51.310;9.466;2023-06-22T07:20:44;11.73;;;10.63;;
14137;SDS011;8199;51.310;9.466;2023-06-22T07:23:09;11.38;;;10.20;;
14137;SDS011;8199;51.310;9.466;2023-06-22T07:25:35;12.02;;;10.75;;
14137;SDS011;8199;51.310;9.466;2023-06-22T07:28:01;12.00;;;10.80;;
14137;SDS011;8199;51.310;9.466;2023-06-22T07:30:29;10.88;;;9.77;;
14137;SDS011;8199;51.310;9.466;2023-06-22T07:32:56;10.77;;;9.55;;
14137;SDS011;8199;51.310;9.466;2023-06-22T07:35:22;10.50;;;9.50;;
14137;SDS011;8199;51.310;9.466;2023-06-22T07:37:47;12.80;;;10.57;;
14137;SDS011;8199;51.310;9.466;2023-06-22T07:40:13;10.93;;;9.82;;
14137;SDS011;8199;51.310;9.466;2023-06-22T07:42:39;12.25;;;10.90;;
14137;SDS011;8199;51.310;9.466;2023-06-22T07:45:04;10.57;;;9.02;;
14137;SDS011;8199;51.310;9.466;2023-06-22T07:47:32;10.15;;;9.15;;
14137;SDS011;8199;51.310;9.466;2023-06-22T07:50:00;11.15;;;9.60;;
14137;SDS011;8199;51.310;9.466;2023-06-22T07:52:27;10.68;;;9.48;;
14137;SDS011;8199;51.310;9.466;2023-06-22T07:54:53;10.23;;;9.23;;
14137;SDS011;8199;51.310;9.466;2023-06-22T07:57:19;10.13;;;8.50;;
14137;SDS011;8199;51.310;9.466;2023-06-22T07:59:45;10.13;;;9.10;;
14137;SDS011;8199;51.310;9.466;2023-06-22T08:02:11;11.80;;;9.10;;
14137;SDS011;8199;51.310;9.466;2023-06-22T08:04:37;9.70;;;7.82;;
14137;SDS011;8199;51.310;9.466;2023-06-22T08:07:03;9.80;;;8.65;;
14137;SDS011;8199;51.310;9.466;2023-06-22T08:09:29;9.98;;;8.80;;
14137;SDS011;8199;51.310;9.466;2023-06-22T08:11:56;9.50;;;8.57;;
14137;SDS011;8199;51.310;9.466;2023-06-22T08:14:22;9.93;;;8.60;;
14137;SDS011;8199;51.310;9.466;2023-06-22T08:16:48;9.48;;;8.55;;
14137;SDS011;8199;51.310;9.466;2023-06-22T08:19:14;9.07;;;8.18;;
14137;SDS011;8199;51.310;9.466;2023-06-22T08:21:39;9.20;;;7.78;;
14137;SDS011;8199;51.310;9.466;2023-06-22T08:24:05;8.50;;;7.60;;
14137;SDS011;8199;51.310;9.466;2023-06-22T08:26:32;10.82;;;7.90;;
14137;SDS011;8199;51.310;9.466;2023-06-22T08:29:01;9.20;;;8.25;;
14137;SDS011;8199;51.310;9.466;2023-06-22T08:31:27;8.88;;;7.97;;
14137;SDS011;8199;51.310;9.466;2023-06-22T08:33:52;11.50;;;8.05;;
14137;SDS011;8199;51.310;9.466;2023-06-22T08:36:18;11.27;;;8.88;;
14137;SDS011;8199;51.310;9.466;2023-06-22T08:38:43;11.27;;;8.60;;
14137;SDS011;8199;51.310;9.466;2023-06-22T08:41:09;11.50;;;7.70;;
14137;SDS011;8199;51.310;9.466;2023-06-22T08:43:35;11.48;;;8.45;;
14137;SDS011;8199;51.310;9.466;2023-06-22T08:46:01;10.40;;;8.40;;
14137;SDS011;8199;51.310;9.466;2023-06-22T08:48:27;10.98;;;8.50;;
14137;SDS011;8199;51.310;9.466;2023-06-22T08:50:53;13.10;;;8.52;;
14137;SDS011;8199;51.310;9.466;2023-06-22T08:53:19;13.05;;;8.05;;
14137;SDS011;8199;51.310;9.466;2023-06-22T08:55:45;16.10;;;8.93;;
14137;SDS011;8199;51.310;9.466;2023-06-22T08:58:10;16.60;;;9.27;;
14137;SDS011;8199;51.310;9.466;2023-06-22T09:00:36;16.15;;;9.48;;
14137;SDS011;8199;51.310;9.466;2023-06-22T09:03:02;12.63;;;8.57;;
14137;SDS011;8199;51.310;9.466;2023-06-22T09:05:28;14.65;;;9.23;;
14137;SDS011;8199;51.310;9.466;2023-06-22T09:07:56;12.80;;;8.38;;
14137;SDS011;8199;51.310;9.466;2023-06-22T09:10:23;16.05;;;8.77;;
14137;SDS011;8199;51.310;9.466;2023-06-22T09:12:49;13.93;;;8.20;;
14137;SDS011;8199;51.310;9.466;2023-06-22T09:15:15;11.85;;;8.23;;
14137;SDS011;8199;51.310;9.466;2023-06-22T09:17:40;13.38;;;8.02;;
14137;SDS011;8199;51.310;9.466;2023-06-22T09:20:06;13.98;;;8.07;;
14137;SDS011;8199;51.310;9.466;2023-06-22T09:22:35;13.25;;;8.27;;
14137;SDS011;8199;51.310;9.466;2023-06-22T09:25:01;9.88;;;8.60;;
14137;SDS011;8199;51.310;9.466;2023-06-22T09:27:28;14.48;;;8.40;;
14137;SDS011;8199;51.310;9.466;2023-06-22T09:29:53;10.52;;;8.20;;
14137;SDS011;8199;51.310;9.466;2023-06-22T09:32:19;10.02;;;7.88;;
14137;SDS011;8199;51.310;9.466;2023-06-22T09:34:45;10.35;;;7.97;;
14137;SDS011;8199;51.310;9.466;2023-06-22T09:37:10;12.63;;;7.93;;
14137;SDS011;8199;51.310;9.466;2023-06-22T09:39:36;12.23;;;7.63;;
14137;SDS011;8199;51.310;9.466;2023-06-22T09:42:02;10.27;;;7.40;;
14137;SDS011;8199;51.310;9.466;2023-06-22T09:44:27;9.48;;;7.47;;
14137;SDS011;8199;51.310;9.466;2023-06-22T09:46:53;12.07;;;8.00;;
14137;SDS011;8199;51.310;9.466;2023-06-22T09:49:18;11.60;;;7.57;;
14137;SDS011;8199;51.310;9.466;2023-06-22T09:51:44;10.93;;;7.45;;
14137;SDS011;8199;51.310;9.466;2023-06-22T09:54:09;8.18;;;7.25;;
14137;SDS011;8199;51.310;9.466;2023-06-22T09:56:35;11.82;;;7.40;;
14137;SDS011;8199;51.310;9.466;2023-06-22T09:59:02;9.50;;;7.25;;
14137;SDS011;8199;51.310;9.466;2023-06-22T10:01:28;8.23;;;7.40;;
14137;SDS011;8199;51.310;9.466;2023-06-22T10:03:53;10.43;;;7.35;;
14137;SDS011;8199;51.310;9.466;2023-06-22T10:06:20;9.75;;;7.45;;
14137;SDS011;8199;51.310;9.466;2023-06-22T10:08:46;8.90;;;7.30;;
14137;SDS011;8199;51.310;9.466;2023-06-22T10:11:13;7.95;;;6.35;;
14137;SDS011;8199;51.310;9.466;2023-06-22T10:13:38;8.27;;;6.70;;
14137;SDS011;8199;51.310;9.466;2023-06-22T10:16:04;8.32;;;7.30;;
14137;SDS011;8199;51.310;9.466;2023-06-22T10:18:30;10.20;;;7.32;;
14137;SDS011;8199;51.310;9.466;2023-06-22T10:20:55;10.00;;;7.40;;
14137;SDS011;8199;51.310;9.466;2023-06-22T10:23:21;8.57;;;7.72;;
14137;SDS011;8199;51.310;9.466;2023-06-22T10:25:47;10.15;;;7.53;;
14137;SDS011;8199;51.310;9.466;2023-06-22T10:28:13;8.55;;;7.03;;
14137;SDS011;8199;51.310;9.466;2023-06-22T10:30:42;7.57;;;6.88;;
14137;SDS011;8199;51.310;9.466;2023-06-22T10:33:08;10.27;;;7.60;;
14137;SDS011;8199;51.310;9.466;2023-06-22T10:35:35;8.15;;;6.63;;
14137;SDS011;8199;51.310;9.466;2023-06-22T10:38:02;8.77;;;7.18;;
14137;SDS011;8199;51.310;9.466;2023-06-22T10:40:28;7.90;;;7.10;;
14137;SDS011;8199;51.310;9.466;2023-06-22T10:42:54;8.32;;;7.35;;
14137;SDS011;8199;51.310;9.466;2023-06-22T10:45:19;7.63;;;6.80;;
14137;SDS011;8199;51.310;9.466;2023-06-22T10:47:45;7.38;;;6.55;;
14137;SDS011;8199;51.310;9.466;2023-06-22T10:50:10;7.30;;;6.53;;
14137;SDS011;8199;51.310;9.466;2023-06-22T10:52:36;7.07;;;6.30;;
14137;SDS011;8199;51.310;9.466;2023-06-22T10:55:02;7.10;;;6.40;;
14137;SDS011;8199;51.310;9.466;2023-06-22T10:57:29;8.07;;;6.78;;
14137;SDS011;8199;51.310;9.466;2023-06-22T10:59:54;8.60;;;6.97;;
14137;SDS011;8199;51.310;9.466;2023-06-22T11:02:20;8.07;;;7.07;;
14137;SDS011;8199;51.310;9.466;2023-06-22T11:04:45;6.93;;;6.28;;
14137;SDS011;8199;51.310;9.466;2023-06-22T11:07:12;8.18;;;6.88;;
14137;SDS011;8199;51.310;9.466;2023-06-22T11:09:38;7.63;;;6.93;;
14137;SDS011;8199;51.310;9.466;2023-06-22T11:12:04;8.85;;;7.07;;
14137;SDS011;8199;51.310;9.466;2023-06-22T11:14:30;8.02;;;6.10;;
14137;SDS011;8199;51.310;9.466;2023-06-22T11:16:56;7.20;;;6.57;;
14137;SDS011;8199;51.310;9.466;2023-06-22T11:19:22;7.25;;;6.35;;
14137;SDS011;8199;51.310;9.466;2023-06-22T11:21:47;7.10;;;6.03;;
14137;SDS011;8199;51.310;9.466;2023-06-22T11:24:13;7.45;;;6.47;;
14137;SDS011;8199;51.310;9.466;2023-06-22T11:26:38;7.75;;;6.85;;
14137;SDS011;8199;51.310;9.466;2023-06-22T11:29:04;7.22;;;6.53;;
14137;SDS011;8199;51.310;9.466;2023-06-22T11:31:30;7.53;;;6.78;;
14137;SDS011;8199;51.310;9.466;2023-06-22T11:33:57;7.05;;;6.35;;
14137;SDS011;8199;51.310;9.466;2023-06-22T11:36:23;7.65;;;6.38;;
14137;SDS011;8199;51.310;9.466;2023-06-22T11:38:48;7.13;;;6.43;;
14137;SDS011;8199;51.310;9.466;2023-06-22T11:41:14;7.40;;;6.68;;
14137;SDS011;8199;51.310;9.466;2023-06-22T11:43:39;7.05;;;6.38;;
14137;SDS011;8199;51.310;9.466;2023-06-22T11:46:05;6.97;;;5.68;;
14137;SDS011;8199;51.310;9.466;2023-06-22T11:48:30;6.50;;;5.90;;
14137;SDS011;8199;51.310;9.466;2023-06-22T11:50:56;8.15;;;7.15;;
14137;SDS011;8199;51.310;9.466;2023-06-22T11:53:23;7.55;;;6.85;;
14137;SDS011;8199;51.310;9.466;2023-06-22T11:55:50;7.05;;;6.32;;
14137;SDS011;8199;51.310;9.466;2023-06-22T11:58:16;6.88;;;6.18;;
14137;SDS011;8199;51.310;9.466;2023-06-22T12:00:42;6.68;;;6.05;;
14137;SDS011;8199;51.310;9.466;2023-06-22T12:03:07;7.75;;;6.45;;
14137;SDS011;8199;51.310;9.466;2023-06-22T12:05:34;7.15;;;6.45;;
14137;SDS011;8199;51.310;9.466;2023-06-22T12:07:59;6.85;;;6.15;;
14137;SDS011;8199;51.310;9.466;2023-06-22T12:10:25;7.05;;;6.35;;
14137;SDS011;8199;51.310;9.466;2023-06-22T12:12:53;7.30;;;6.35;;
14137;SDS011;8199;51.310;9.466;2023-06-22T12:15:19;6.82;;;6.18;;
14137;SDS011;8199;51.310;9.466;2023-06-22T12:17:45;6.28;;;5.68;;
14137;SDS011;8199;51.310;9.466;2023-06-22T12:20:10;7.40;;;6.70;;
14137;SDS011;8199;51.310;9.466;2023-06-22T12:22:36;6.65;;;5.88;;
14137;SDS011;8199;51.310;9.466;2023-06-22T12:25:02;6.80;;;5.95;;
14137;SDS011;8199;51.310;9.466;2023-06-22T12:27:28;8.02;;;7.25;;
14137;SDS011;8199;51.310;9.466;2023-06-22T12:29:55;7.03;;;6.32;;
14137;SDS011;8199;51.310;9.466;2023-06-22T12:32:21;7.22;;;6.53;;
14137;SDS011;8199;51.310;9.466;2023-06-22T12:34:46;6.50;;;5.90;;
14137;SDS011;8199;51.310;9.466;2023-06-22T12:37:12;6.95;;;6.25;;
14137;SDS011;8199;51.310;9.466;2023-06-22T12:39:39;7.38;;;6.53;;
14137;SDS011;8199;51.310;9.466;2023-06-22T12:42:06;6.82;;;6.22;;
14137;SDS011;8199;51.310;9.466;2023-06-22T12:44:33;7.40;;;6.25;;
14137;SDS011;8199;51.310;9.466;2023-06-22T12:47:06;7.85;;;6.45;;
14137;SDS011;8199;51.310;9.466;2023-06-22T12:49:31;6.18;;;5.68;;
14137;SDS011;8199;51.310;9.466;2023-06-22T12:51:57;6.22;;;5.72;;
14137;SDS011;8199;51.310;9.466;2023-06-22T12:54:22;6.85;;;6.10;;
14137;SDS011;8199;51.310;9.466;2023-06-22T12:56:49;6.88;;;6.13;;
14137;SDS011;8199;51.310;9.466;2023-06-22T12:59:15;6.65;;;6.05;;
14137;SDS011;8199;51.310;9.466;2023-06-22T13:01:42;6.78;;;6.15;;
14137;SDS011;8199;51.310;9.466;2023-06-22T13:04:09;7.05;;;6.35;;
14137;SDS011;8199;51.310;9.466;2023-06-22T13:06:36;6.50;;;5.93;;
14137;SDS011;8199;51.310;9.466;2023-06-22T13:09:01;7.00;;;6.13;;
14137;SDS011;8199;51.310;9.466;2023-06-22T13:11:30;6.70;;;5.90;;
14137;SDS011;8199;51.310;9.466;2023-06-22T13:13:55;6.60;;;6.00;;
14137;SDS011;8199;51.310;9.466;2023-06-22T13:16:21;6.63;;;6.00;;
14137;SDS011;8199;51.310;9.466;2023-06-22T13:18:46;7.07;;;6.38;;
14137;SDS011;8199;51.310;9.466;2023-06-22T13:21:12;6.50;;;5.90;;
14137;SDS011;8199;51.310;9.466;2023-06-22T13:23:39;6.93;;;6.32;;
14137;SDS011;8199;51.310;9.466;2023-06-22T13:26:04;7.47;;;6.78;;
14137;SDS011;8199;51.310;9.466;2023-06-22T13:28:30;6.15;;;5.55;;
14137;SDS011;8199;51.310;9.466;2023-06-22T13:30:55;6.78;;;6.13;;
14137;SDS011;8199;51.310;9.466;2023-06-22T13:33:21;6.55;;;5.95;;
14137;SDS011;8199;51.310;9.466;2023-06-22T13:35:46;6.90;;;6.15;;
14137;SDS011;8199;51.310;9.466;2023-06-22T13:38:12;6.60;;;6.00;;
14137;SDS011;8199;51.310;9.466;2023-06-22T13:40:38;6.85;;;6.18;;
14137;SDS011;8199;51.310;9.466;2023-06-22T13:43:04;6.22;;;5.63;;
14137;SDS011;8199;51.310;9.466;2023-06-22T13:45:30;7.07;;;6.35;;
14137;SDS011;8199;51.310;9.466;2023-06-22T13:47:55;9.32;;;8.43;;
14137;SDS011;8199;51.310;9.466;2023-06-22T13:50:21;8.20;;;6.93;;
14137;SDS011;8199;51.310;9.466;2023-06-22T13:52:47;14.27;;;9.15;;
14137;SDS011;8199;51.310;9.466;2023-06-22T13:55:12;9.15;;;8.23;;
14137;SDS011;8199;51.310;9.466;2023-06-22T13:57:39;13.18;;;9.45;;
14137;SDS011;8199;51.310;9.466;2023-06-22T14:00:05;11.25;;;9.35;;
14137;SDS011;8199;51.310;9.466;2023-06-22T14:02:32;11.52;;;9.27;;
14137;SDS011;8199;51.310;9.466;2023-06-22T14:04:57;11.48;;;8.65;;
14137;SDS011;8199;51.310;9.466;2023-06-22T14:07:22;10.40;;;8.85;;
14137;SDS011;8199;51.310;9.466;2023-06-22T14:09:49;11.70;;;8.90;;
14137;SDS011;8199;51.310;9.466;2023-06-22T14:12:15;10.20;;;8.65;;
14137;SDS011;8199;51.310;9.466;2023-06-22T14:14:42;10.70;;;9.23;;
14137;SDS011;8199;51.310;9.466;2023-06-22T14:17:08;11.63;;;9.90;;
14137;SDS011;8199;51.310;9.466;2023-06-22T14:19:35;10.55;;;9.43;;
14137;SDS011;8199;51.310;9.466;2023-06-22T14:22:01;10.55;;;9.32;;
14137;SDS011;8199;51.310;9.466;2023-06-22T14:24:27;10.70;;;9.55;;
14137;SDS011;8199;51.310;9.466;2023-06-22T14:26:53;10.80;;;9.70;;
14137;SDS011;8199;51.310;9.466;2023-06-22T14:29:19;11.10;;;9.90;;
14137;SDS011;8199;51.310;9.466;2023-06-22T14:31:45;11.75;;;10.13;;
14137;SDS011;8199;51.310;9.466;2023-06-22T14:34:11;11.60;;;10.43;;
14137;SDS011;8199;51.310;9.466;2023-06-22T14:36:37;11.05;;;9.95;;
14137;SDS011;8199;51.310;9.466;2023-06-22T14:39:02;11.68;;;9.93;;
14137;SDS011;8199;51.310;9.466;2023-06-22T14:41:29;12.55;;;11.07;;
14137;SDS011;8199;51.310;9.466;2023-06-22T14:43:56;13.95;;;12.15;;
14137;SDS011;8199;51.310;9.466;2023-06-22T14:46:21;15.02;;;12.98;;
14137;SDS011;8199;51.310;9.466;2023-06-22T14:48:47;17.48;;;14.90;;
14137;SDS011;8199;51.310;9.466;2023-06-22T14:51:13;14.88;;;13.27;;
14137;SDS011;8199;51.310;9.466;2023-06-22T14:53:39;17.02;;;12.93;;
14137;SDS011;8199;51.310;9.466;2023-06-22T14:56:04;14.90;;;12.43;;
14137;SDS011;8199;51.310;9.466;2023-06-22T14:58:30;14.57;;;12.27;;
14137;SDS011;8199;51.310;9.466;2023-06-22T15:00:58;14.50;;;12.68;;
14137;SDS011;8199;51.310;9.466;2023-06-22T15:03:25;14.10;;;12.57;;
14137;SDS011;8199;51.310;9.466;2023-06-22T15:05:53;15.70;;;13.27;;
14137;SDS011;8199;51.310;9.466;2023-06-22T15:08:19;17.25;;;13.43;;
14137;SDS011;8199;51.310;9.466;2023-06-22T15:10:46;17.30;;;12.95;;
14137;SDS011;8199;51.310;9.466;2023-06-22T15:13:11;15.57;;;12.27;;
14137;SDS011;8199;51.310;9.466;2023-06-22T15:15:37;14.80;;;12.85;;
14137;SDS011;8199;51.310;9.466;2023-06-22T15:18:03;14.73;;;12.00;;
14137;SDS011;8199;51.310;9.466;2023-06-22T15:20:29;13.77;;;11.52;;
14137;SDS011;8199;51.310;9.466;2023-06-22T15:22:54;15.18;;;12.00;;
14137;SDS011;8199;51.310;9.466;2023-06-22T15:25:21;13.20;;;11.48;;
14137;SDS011;8199;51.310;9.466;2023-06-22T15:27:47;13.95;;;11.63;;
14137;SDS011;8199;51.310;9.466;2023-06-22T15:30:12;14.68;;;12.57;;
14137;SDS011;8199;51.310;9.466;2023-06-22T15:32:38;13.90;;;12.32;;
14137;SDS011;8199;51.310;9.466;2023-06-22T15:35:03;15.52;;;12.43;;
14137;SDS011;8199;51.310;9.466;2023-06-22T15:37:29;14.50;;;11.63;;
14137;SDS011;8199;51.310;9.466;2023-06-22T15:39:54;14.05;;;11.05;;
14137;SDS011;8199;51.310;9.466;2023-06-22T15:42:21;13.32;;;10.98;;
14137;SDS011;8199;51.310;9.466;2023-06-22T15:44:47;16.60;;;11.45;;
14137;SDS011;8199;51.310;9.466;2023-06-22T15:47:12;16.30;;;11.35;;
14137;SDS011;8199;51.310;9.466;2023-06-22T15:49:38;18.38;;;12.10;;
14137;SDS011;8199;51.310;9.466;2023-06-22T15:52:04;15.75;;;11.68;;
14137;SDS011;8199;51.310;9.466;2023-06-22T15:54:29;17.85;;;11.20;;
14137;SDS011;8199;51.310;9.466;2023-06-22T15:56:55;18.95;;;11.60;;
14137;SDS011;8199;51.310;9.466;2023-06-22T15:59:21;23.45;;;11.20;;
14137;SDS011;8199;51.310;9.466;2023-06-22T16:01:46;18.27;;;10.68;;
14137;SDS011;8199;51.310;9.466;2023-06-22T16:04:12;17.52;;;10.10;;
14137;SDS011;8199;51.310;9.466;2023-06-22T16:06:37;13.45;;;10.15;;
14137;SDS011;8199;51.310;9.466;2023-06-22T16:09:03;15.13;;;10.35;;
14137;SDS011;8199;51.310;9.466;2023-06-22T16:11:30;12.98;;;10.50;;
14137;SDS011;8199;51.310;9.466;2023-06-22T16:13:55;13.13;;;9.77;;
14137;SDS011;8199;51.310;9.466;2023-06-22T16:16:21;15.50;;;9.52;;
14137;SDS011;8199;51.310;9.466;2023-06-22T16:18:46;15.07;;;9.57;;
14137;SDS011;8199;51.310;9.466;2023-06-22T16:21:12;12.98;;;8.95;;
14137;SDS011;8199;51.310;9.466;2023-06-22T16:23:38;12.43;;;8.63;;
14137;SDS011;8199;51.310;9.466;2023-06-22T16:26:04;13.77;;;8.02;;
14137;SDS011;8199;51.310;9.466;2023-06-22T16:28:29;11.38;;;7.90;;
14137;SDS011;8199;51.310;9.466;2023-06-22T16:30:55;9.95;;;8.18;;
14137;SDS011;8199;51.310;9.466;2023-06-22T16:33:20;11.50;;;7.90;;
14137;SDS011;8199;51.310;9.466;2023-06-22T16:35:46;14.23;;;8.25;;
14137;SDS011;8199;51.310;9.466;2023-06-22T16:38:11;9.25;;;7.43;;
14137;SDS011;8199;51.310;9.466;2023-06-22T16:40:37;11.07;;;7.93;;
14137;SDS011;8199;51.310;9.466;2023-06-22T16:43:03;10.32;;;7.22;;
14137;SDS011;8199;51.310;9.466;2023-06-22T16:45:28;8.20;;;7.18;;
14137;SDS011;8199;51.310;9.466;2023-06-22T16:47:57;12.55;;;8.02;;
14137;SDS011;8199;51.310;9.466;2023-06-22T16:50:23;10.15;;;8.20;;
14137;SDS011;8199;51.310;9.466;2023-06-22T16:52:49;9.65;;;7.47;;
14137;SDS011;8199;51.310;9.466;2023-06-22T16:55:14;11.55;;;8.25;;
14137;SDS011;8199;51.310;9.466;2023-06-22T16:57:40;9.75;;;7.43;;
14137;SDS011;8199;51.310;9.466;2023-06-22T17:00:07;7.78;;;6.95;;
14137;SDS011;8199;51.310;9.466;2023-06-22T17:02:34;9.80;;;7.00;;
14137;SDS011;8199;51.310;9.466;2023-06-22T17:05:05;8.18;;;6.47;;
14137;SDS011;8199;51.310;9.466;2023-06-22T17:07:32;8.88;;;6.78;;
14137;SDS011;8199;51.310;9.466;2023-06-22T17:10:01;7.38;;;6.53;;
14137;SDS011;8199;51.310;9.466;2023-06-22T17:12:27;8.10;;;6.85;;
14137;SDS011;8199;51.310;9.466;2023-06-22T17:14:54;7.60;;;6.15;;
14137;SDS011;8199;51.310;9.466;2023-06-22T17:17:22;7.60;;;6.25;;
14137;SDS011;8199;51.310;9.466;2023-06-22T17:19:51;6.28;;;5.68;;
14137;SDS011;8199;51.310;9.466;2023-06-22T17:22:17;7.63;;;6.40;;
14137;SDS011;8199;51.310;9.466;2023-06-22T17:24:43;7.15;;;6.45;;
14137;SDS011;8199;51.310;9.466;2023-06-22T17:27:09;7.30;;;6.57;;
14137;SDS011;8199;51.310;9.466;2023-06-22T17:29:35;7.68;;;6.90;;
14137;SDS011;8199;51.310;9.466;2023-06-22T17:32:01;9.52;;;6.38;;
14137;SDS011;8199;51.310;9.466;2023-06-22T17:34:28;6.65;;;6.03;;
14137;SDS011;8199;51.310;9.466;2023-06-22T17:36:55;6.38;;;5.68;;
14137;SDS011;8199;51.310;9.466;2023-06-22T17:39:23;7.35;;;6.03;;
14137;SDS011;8199;51.310;9.466;2023-06-22T17:41:51;6.22;;;5.60;;
14137;SDS011;8199;51.310;9.466;2023-06-22T17:44:23;6.45;;;5.85;;
14137;SDS011;8199;51.310;9.466;2023-06-22T17:46:53;7.28;;;5.50;;
14137;SDS011;8199;51.310;9.466;2023-06-22T17:49:26;8.77;;;5.53;;
